x

West Orca Bay - 8nm Nw Of Hinchinbrook Is , Ak (46060) Wave Buoy

5:50am - Sun 28th Dec 2014 All times are AKST. -9 hours from GMT.

  • Sig Wave height 1.3ft
  • Swell Direction
  • Peak Period 10s
  • Average Period 4s
  • Wind
    9mph, 11mph gusts
  • Sea Temp 44°f
  • Air Temp 39°f
  • Sea Pressure 1035.7mb
  • West Orca Bay - 8nm Nw Of Hinchinbrook  Is , Ak
  • West Orca Bay - 8nm Nw Of Hinchinbrook  Is , Ak

More Historic Weather Station data

Upgrade to MSW Pro to gain access to the past 30 days of data for over 8000 Wavebouys and Weather Stations around the globe.

Join Pro

Comparision Forecast

View Surf forecast
   
Sun 12/28 5:50am 1.3ft 10s 4s 9 11 mph 1035.7mb 44f 39f
4:50am 1.3ft 11s 4s 13 16 mph 1035.3mb 44f 40f
3:50am 1.3ft 10s 4s 11 13 mph 1035.1mb 44f 39f
2:50am 1.3ft 9s 4s 9 11 mph 1035.2mb 44f 38f
1:50am 1.3ft 8s 4s 11 13 mph 1034.5mb 44f 39f
12:50am 1.3ft 9s 4s 11 13 mph 1034.8mb 44f 39f
Sat 12/27 11:50pm 1.3ft 4s 4s 9
mph
1034.5mb 44f 40f
10:50pm 1.6ft 4s 4s 4 7 mph 1034.3mb 44f 39f
9:50pm 1.3ft 10s 5s 2 4 mph 1034.2mb 44f 39f
8:50pm 1.3ft 9s 4s  -  2 mph 1033.4mb 44f 38f
7:50pm 1.6ft 15s 4s  -  2 mph 1032.7mb 44f 38f
6:50pm 2ft 4s 4s 2 4 mph 1032.2mb 44f 38f
5:50pm 1.6ft 4s 5s  -  2 mph 1032.1mb 44f 38f
4:50pm 1.3ft 12s 5s 2 4 mph 1031.8mb 44f 37f
3:50pm 1.3ft 10s 5s 7 9 mph 1031.3mb 44f 38f
2:50pm 1.3ft 8s 4s 7 9 mph 1031.1mb 44f 38f
1:50pm 1.3ft 13s 4s 4 9 mph 1030.6mb 44f 38f
12:50pm 1.3ft 9s 4s 2 7 mph 1030.1mb 44f 38f
11:50am 1.3ft 13s 4s 4 7 mph 1029.7mb 44f 38f
10:50am 1.6ft 12s 4s 9 11 mph 1029.5mb 44f 38f
9:50am 1.3ft 11s 5s 13 16 mph 1028.8mb 44f 38f
8:50am 1.3ft 11s 4s 9 11 mph 1027.8mb 44f 38f
7:50am 1.6ft 13s 4s 11 13 mph 1027mb 44f 37f
6:50am 1.6ft 14s 4s 11 13 mph 1026.4mb 43f 38f
5:50am 1.3ft 14s 5s 11 16 mph 1025.9mb 43f 38f
4:50am 1.3ft 14s 5s 9 11 mph 1025.5mb 43f 38f
3:50am 2ft 14s 7s 7 9 mph 1025.3mb 43f 38f
2:50am 2ft 12s 7s 4 7 mph 1024.8mb 43f 38f
1:50am 1.6ft 10s 7s 4 7 mph 1024.3mb 43f 38f
12:50am 1.6ft 8s 6s 2 4 mph 1023.6mb 43f 38f
Fri 12/26 11:50pm 1.6ft 9s 7s 4 7 mph 1023.2mb 43f 38f
10:50pm 2ft 11s 8s 4 9 mph 1022.4mb 43f 38f
9:50pm 2ft 10s 7s 4 7 mph 1021.7mb 43f 39f
8:50pm 2ft 11s 8s 4
mph
1021.3mb 43f 39f
7:50pm 2ft 10s 8s 4 7 mph 1020.5mb 44f 39f
6:50pm 2.5ft 11s 8s 9 11 mph 1019.7mb 44f 39f
5:50pm 2ft 12s 7s 7 9 mph 1019.2mb 45f 39f
4:50pm 2.5ft 9s 7s 2
mph
1018.7mb 45f 40f
3:50pm 3ft 14s 8s 4
mph
1017.7mb 45f 39f
2:50pm 3.5ft 12s 8s 4 7 mph 1017.5mb 45f 40f
1:50pm 3.5ft 11s 8s 7 9 mph 1017.2mb 45f 40f
12:50pm 3.5ft 9s 8s 9 11 mph 1016.8mb 45f 40f
11:50am 4.5ft 11s 8s 7 11 mph 1016.5mb 45f 40f
10:50am 3.5ft 9s 7s  -  2 mph 1016.1mb 45f 40f
9:50am 3.5ft 10s 8s  -  2 mph 1015.5mb 45f 40f
8:50am 3ft 10s 7s 2 4 mph 1014.5mb 45f 40f
7:50am 3.5ft 11s 7s 7 9 mph 1013.8mb 45f 40f
6:50am 3.5ft 10s 7s 7 9 mph 1013.4mb 45f 40f
5:50am 3.5ft 11s 6s 9 11 mph 1013mb 45f 40f
4:50am 3.5ft 11s 6s 9 11 mph 1012.4mb 45f 40f
3:50am 4ft 11s 6s 16 18 mph 1012.1mb 45f 41f
2:50am 4.5ft 12s 6s 16 20 mph 1011.9mb 45f 41f
1:50am 5ft 11s 6s 18 20 mph 1011.7mb 45f 41f
12:50am 5ft 11s 6s 18 22 mph 1011.5mb 45f 41f
Thu 12/25 11:50pm 5ft 11s 6s 16 22 mph 1011mb 45f 41f
10:50pm 5ft 12s 6s 18 20 mph 1010.6mb 45f 42f
9:50pm 5ft 11s 6s 18 20 mph 1009.9mb 45f 41f
8:50pm 5ft 12s 5s 18 22 mph 1009.6mb 45f 40f
7:50pm 5ft 11s 5s 18 27 mph 1009.7mb 45f 41f
6:50pm 4.5ft 10s 5s 27 31 mph 1009.3mb 45f 42f
5:50pm 5ft 5s 5s 20 25 mph 1009mb 45f 44f
4:50pm 5.5ft 5s 5s 22 29 mph 1008.3mb 45f 44f
3:50pm 5.5ft 6s 5s 22 27 mph 1007.5mb 45f 44f
2:50pm 6ft 5s 5s 27 31 mph 1005.9mb 45f 44f
1:50pm 4.5ft 5s 4s 29 36 mph 1005.1mb 45f 44f
12:50pm 4.5ft 5s 4s 20 25 mph 1004.7mb 45f 43f
11:50am 5ft 5s 4s 20 29 mph 1004.8mb 45f 41f
10:50am 5ft 5s 5s 29 34 mph 1004.7mb 45f 39f
9:50am 5.5ft 5s 5s 29 34 mph 1004.3mb 45f 39f
8:50am 5ft 11s 4s 34 40 mph 1004mb 45f 40f
7:50am 5ft 4s 4s 31 36 mph 1004mb 45f 40f
6:50am 4.5ft 4s 4s 31 38 mph 1004.5mb 45f 41f
5:50am 3ft 4s 4s 29 34 mph 1005mb 45f 41f
4:50am 3.5ft 7s 4s 22 27 mph 1005.8mb 45f 41f
3:50am 3.5ft 4s 4s 25 31 mph 1006.2mb 45f 41f
2:50am 2.5ft 8s 4s 25 29 mph 1006.7mb 45f 40f
1:50am 3ft 8s 4s 16 18 mph 1007.5mb 45f 40f
12:50am 2.5ft 7s 4s 18 20 mph 1006.9mb 45f 39f
Wed 12/24 11:50pm 2.5ft 6s 4s 18 29 mph 1007.8mb 45f 39f
10:50pm 2ft 8s 4s 16 20 mph 1008mb 45f 39f
9:50pm 2ft 4s 4s 16 20 mph 1007.4mb 45f 39f
8:50pm 2ft 3s 4s 13 18 mph 1007.1mb 45f 38f
7:50pm 2.5ft 3s 4s 18 22 mph 1006.2mb 45f 39f
6:50pm 2ft 3s 3s 18 20 mph 1006.2mb 45f 38f
5:50pm 2.5ft 3s 4s 18 22 mph 1005.7mb 45f 38f
4:50pm 2.5ft 4s 4s 20 22 mph 1005.3mb 45f 38f